Terminal Aerodrome Forecast
Issued by NWS Central Illinois

Home | Current Version | Previous Version | Text Only | Print | Product List | Glossary On
Versions: 1 2 3 4 5 6 7 8 9 10 11 12 13 14 15 16 17 18 19 20 21 22
409
FTUS43 KILX 281725
TAFSPI
TAF
KSPI 281725Z 2818/2918 33006KT P6SM VCTS SCT025CB BKN100
      TEMPO 2818/2820 4SM TSRA BR BKN025CB
     FM282000 32005KT P6SM VCTS SCT030CB BKN050
     FM282200 31004KT P6SM BKN045
     FM290600 30003KT 4SM BR SCT030 BKN250
     FM291400 29005KT P6SM SCT030 BKN250=

USA.gov is the U.S. government's official web portal to all federal, state and local government web resources and services.